createdAt,value
2022-10-18T00:04:29.292Z,13.18
2022-10-18T00:09:10.891Z,11.52
2022-10-18T00:13:51.309Z,11.27
2022-10-18T00:18:32.628Z,10.55
2022-10-18T00:23:13.096Z,14.98
2022-10-18T00:27:54.869Z,7.18
2022-10-18T00:32:37.887Z,15.25
2022-10-18T00:37:19.014Z,14.88
2022-10-18T00:41:59.173Z,16.15
2022-10-18T00:46:42.813Z,17.30
2022-10-18T00:51:26.627Z,17.73
2022-10-18T00:56:07.525Z,17.55
2022-10-18T01:00:48.241Z,17.75
2022-10-18T01:05:29.938Z,32.42
2022-10-18T01:10:23.074Z,20.15
2022-10-18T01:15:11.781Z,21.98
2022-10-18T01:20:18.738Z,19.55
2022-10-18T01:25:14.057Z,18.63
2022-10-18T01:30:13.179Z,21.45
2022-10-18T01:35:01.197Z,18.73
2022-10-18T01:39:46.321Z,21.00
2022-10-18T01:44:29.478Z,17.20
2022-10-18T01:49:09.774Z,21.30
2022-10-18T01:53:51.285Z,19.38
2022-10-18T01:58:40.912Z,21.60
2022-10-18T02:03:24.016Z,23.55
2022-10-18T02:08:19.328Z,20.75
2022-10-18T02:13:05.607Z,24.17
2022-10-18T02:17:46.993Z,19.23
2022-10-18T02:22:32.110Z,22.80
2022-10-18T02:27:13.148Z,24.25
2022-10-18T02:31:59.756Z,23.27
2022-10-18T02:36:44.609Z,22.20
2022-10-18T02:41:27.046Z,26.70
2022-10-18T02:46:07.631Z,23.42
2022-10-18T02:50:49.094Z,24.13
2022-10-18T03:00:15.826Z,27.38
2022-10-18T03:04:56.454Z,20.88
2022-10-18T03:09:37.973Z,26.10
2022-10-18T03:14:18.385Z,25.95
2022-10-18T03:18:58.629Z,26.70
2022-10-18T03:23:38.745Z,27.80
2022-10-18T03:28:20.517Z,22.23
2022-10-18T03:33:01.088Z,25.92
2022-10-18T03:37:41.230Z,29.38
2022-10-18T03:42:21.849Z,30.65
2022-10-18T03:47:03.525Z,31.13
2022-10-18T03:51:44.025Z,31.13
2022-10-18T03:56:24.209Z,32.95
2022-10-18T04:01:04.778Z,32.78
2022-10-18T04:05:47.451Z,28.85
2022-10-18T04:10:28.029Z,36.17
2022-10-18T04:15:08.962Z,34.97
2022-10-18T04:19:49.522Z,31.88
2022-10-18T04:24:31.227Z,43.78
2022-10-18T04:29:11.406Z,80.53
2022-10-18T04:33:52.024Z,45.90
2022-10-18T04:38:32.443Z,54.40
2022-10-18T04:43:13.726Z,48.15
2022-10-18T04:47:53.688Z,54.55
2022-10-18T04:52:33.721Z,90.97
2022-10-18T04:57:13.654Z,50.60
2022-10-18T05:01:55.167Z,41.28
2022-10-18T05:06:35.744Z,50.00
2022-10-18T05:11:15.785Z,44.25
2022-10-18T05:15:56.131Z,61.10
2022-10-18T05:20:37.488Z,53.90
2022-10-18T05:25:17.726Z,49.42
2022-10-18T05:30:01.250Z,64.35
2022-10-18T05:34:44.732Z,62.83
2022-10-18T05:39:26.228Z,51.80
2022-10-18T05:44:06.991Z,54.78
2022-10-18T05:48:51.348Z,60.92
2022-10-18T05:53:36.811Z,62.90
2022-10-18T05:58:19.026Z,43.90
2022-10-18T06:03:00.534Z,47.65
2022-10-18T06:07:41.493Z,64.28
2022-10-18T06:12:21.832Z,53.58
2022-10-18T06:17:03.845Z,79.88
2022-10-18T06:21:44.539Z,63.35
2022-10-18T06:26:26.042Z,68.93
2022-10-18T06:31:07.604Z,62.72
2022-10-18T06:35:57.350Z,77.03
2022-10-18T06:40:40.120Z,98.95
2022-10-18T06:45:20.428Z,83.72
2022-10-18T06:50:00.903Z,89.95
2022-10-18T06:54:45.215Z,84.50
2022-10-18T06:59:28.849Z,79.80
2022-10-18T07:04:11.653Z,84.07
2022-10-18T07:08:54.190Z,118.05
2022-10-18T07:13:36.238Z,98.55
2022-10-18T07:18:16.946Z,126.50
2022-10-18T07:22:57.410Z,122.15
2022-10-18T07:27:39.223Z,131.85
2022-10-18T07:32:21.458Z,125.82
2022-10-18T07:37:02.997Z,119.97
2022-10-18T07:41:43.301Z,121.38
2022-10-18T07:46:23.982Z,126.22
2022-10-18T07:51:07.495Z,149.05
2022-10-18T07:55:47.608Z,142.65
2022-10-18T08:00:27.786Z,162.57
2022-10-18T08:05:08.575Z,154.73
2022-10-18T08:09:50.542Z,191.55
2022-10-18T08:14:31.306Z,166.68
2022-10-18T08:19:11.698Z,163.13
2022-10-18T08:23:53.935Z,171.65
2022-10-18T08:28:36.887Z,174.68
2022-10-18T08:33:17.199Z,167.38
2022-10-18T08:37:57.848Z,169.27
2022-10-18T08:42:58.602Z,176.00
2022-10-18T08:47:43.446Z,144.23
2022-10-18T08:52:33.133Z,163.68
2022-10-18T08:57:18.183Z,139.07
2022-10-18T09:02:06.724Z,152.27
2022-10-18T09:07:02.265Z,159.50
2022-10-18T09:11:54.268Z,144.43
2022-10-18T09:16:46.825Z,110.82
2022-10-18T09:21:38.153Z,121.15
2022-10-18T09:26:21.593Z,101.88
2022-10-18T09:31:08.948Z,90.90
2022-10-18T09:35:53.472Z,105.80
2022-10-18T09:40:40.148Z,88.07
2022-10-18T09:45:28.652Z,85.85
2022-10-18T09:50:19.237Z,80.50
2022-10-18T09:55:02.357Z,79.47
2022-10-18T09:59:43.922Z,64.65
2022-10-18T10:04:25.646Z,73.57
2022-10-18T10:09:08.909Z,59.78
2022-10-18T10:13:49.791Z,64.38
2022-10-18T10:18:32.383Z,62.92
2022-10-18T10:23:22.232Z,58.33
2022-10-18T10:28:05.092Z,58.08
2022-10-18T10:32:48.266Z,43.72
2022-10-18T10:37:35.001Z,44.33
2022-10-18T10:42:17.301Z,39.67
2022-10-18T10:46:58.381Z,34.35
2022-10-18T10:51:41.041Z,33.28
2022-10-18T10:56:28.008Z,31.85
2022-10-18T11:01:25.784Z,27.73
2022-10-18T11:06:06.263Z,27.17
2022-10-18T11:11:09.989Z,30.92
2022-10-18T11:15:54.223Z,32.47
2022-10-18T11:20:39.619Z,29.02
2022-10-18T11:25:23.993Z,74.55
2022-10-18T11:30:20.729Z,25.95
2022-10-18T11:35:14.212Z,22.63
2022-10-18T11:40:04.549Z,22.17
2022-10-18T11:44:51.154Z,21.23
2022-10-18T11:49:48.680Z,20.27
2022-10-18T11:54:46.491Z,18.42
2022-10-18T11:59:38.788Z,19.13
2022-10-18T12:04:20.854Z,17.33
2022-10-18T12:09:04.354Z,20.88
2022-10-18T12:13:49.603Z,16.55
2022-10-18T12:18:32.382Z,17.38
2022-10-18T12:23:16.387Z,20.63
2022-10-18T12:33:03.498Z,21.80
2022-10-18T12:38:14.044Z,23.38
2022-10-18T12:42:54.825Z,20.08
2022-10-18T12:47:35.710Z,19.88
2022-10-18T12:52:23.024Z,16.05
2022-10-18T12:57:07.714Z,17.50
2022-10-18T13:02:36.042Z,13.65
2022-10-18T13:07:33.400Z,18.55
2022-10-18T13:12:45.153Z,13.57
2022-10-18T13:17:33.104Z,20.58
2022-10-18T13:22:28.468Z,11.48
2022-10-18T13:27:42.625Z,14.52
2022-10-18T13:32:32.798Z,16.20
2022-10-18T13:37:24.070Z,13.32
2022-10-18T13:42:29.660Z,12.95
2022-10-18T13:47:12.968Z,10.23
2022-10-18T13:52:09.216Z,14.07
2022-10-18T13:57:15.692Z,12.88
2022-10-18T14:02:15.126Z,16.88
2022-10-18T14:07:02.325Z,10.43
2022-10-18T14:11:50.219Z,11.50
2022-10-18T14:16:36.176Z,13.60
2022-10-18T14:21:27.393Z,9.73
2022-10-18T14:26:16.693Z,12.02
2022-10-18T14:30:59.017Z,12.57
2022-10-18T14:35:41.369Z,6.07
2022-10-18T14:40:29.753Z,11.63
2022-10-18T14:45:21.193Z,11.63
2022-10-18T14:50:01.674Z,13.35
2022-10-18T14:54:42.690Z,12.73
2022-10-18T14:59:25.747Z,10.02
2022-10-18T15:04:12.089Z,14.18
2022-10-18T15:08:56.305Z,12.15
2022-10-18T15:13:42.909Z,11.75
2022-10-18T15:18:24.914Z,10.25
2022-10-18T15:27:33.969Z,16.55
2022-10-18T15:32:20.417Z,11.82
2022-10-18T15:37:00.787Z,11.00
2022-10-18T15:41:49.030Z,16.33
2022-10-18T15:46:33.649Z,12.90
2022-10-18T15:51:41.321Z,11.60
2022-10-18T15:56:30.822Z,10.35
2022-10-18T16:01:17.284Z,9.85
2022-10-18T16:06:04.628Z,11.75
2022-10-18T16:10:45.441Z,12.73
2022-10-18T16:15:25.629Z,14.82
2022-10-18T16:20:06.671Z,15.30
2022-10-18T16:24:48.354Z,12.43
2022-10-18T16:29:32.125Z,14.32
2022-10-18T16:34:14.907Z,15.50
2022-10-18T16:38:55.269Z,7.80
2022-10-18T16:43:37.041Z,14.00
2022-10-18T16:48:19.292Z,35.08
2022-10-18T16:52:59.845Z,22.33
2022-10-18T16:57:40.070Z,21.63
2022-10-18T17:02:21.814Z,16.13
2022-10-18T17:07:02.278Z,16.80
2022-10-18T17:11:42.768Z,20.83
2022-10-18T17:21:09.089Z,15.77
2022-10-18T17:26:04.742Z,14.55
2022-10-18T17:30:48.780Z,18.85
2022-10-18T17:35:29.160Z,23.27
2022-10-18T17:40:11.398Z,16.42
2022-10-18T17:44:54.236Z,20.60
2022-10-18T17:49:37.298Z,19.77
2022-10-18T17:54:17.652Z,22.15
2022-10-18T17:58:59.350Z,18.15
2022-10-18T18:03:39.890Z,17.80
2022-10-18T18:08:20.673Z,19.80
2022-10-18T18:13:00.865Z,11.88
2022-10-18T18:17:58.247Z,16.65
2022-10-18T18:22:41.849Z,12.52
2022-10-18T18:27:23.552Z,22.85
2022-10-18T18:32:03.522Z,17.10
2022-10-18T18:36:45.453Z,24.95
2022-10-18T18:41:26.835Z,22.02
2022-10-18T18:46:07.420Z,30.40
2022-10-18T18:50:50.921Z,14.57
2022-10-18T18:55:34.584Z,23.60
2022-10-18T19:00:16.857Z,19.08
2022-10-18T19:04:57.000Z,27.05
2022-10-18T19:09:38.632Z,17.80
2022-10-18T19:19:08.879Z,14.60
2022-10-18T19:23:50.293Z,17.45
2022-10-18T19:28:30.448Z,16.42
2022-10-18T19:33:15.453Z,17.20
2022-10-18T19:37:55.692Z,14.50
2022-10-18T19:42:38.299Z,23.63
2022-10-18T19:47:21.031Z,23.35
2022-10-18T19:52:02.564Z,28.50
2022-10-18T19:56:43.578Z,23.42
2022-10-18T20:01:23.890Z,20.98
2022-10-18T20:06:04.836Z,21.23
2022-10-18T20:10:46.551Z,17.63
2022-10-18T20:15:27.748Z,39.10
2022-10-18T20:20:09.137Z,19.05
2022-10-18T20:24:49.886Z,17.92
2022-10-18T20:29:33.248Z,19.65
2022-10-18T20:34:13.248Z,22.40
2022-10-18T20:38:54.944Z,18.70
2022-10-18T20:43:35.658Z,17.92
2022-10-18T20:48:16.833Z,17.77
2022-10-18T20:52:56.822Z,18.92
2022-10-18T20:57:37.386Z,15.25
2022-10-18T21:02:17.805Z,25.75
2022-10-18T21:07:01.135Z,13.63
2022-10-18T21:11:42.530Z,10.00
2022-10-18T21:16:23.272Z,18.15
2022-10-18T21:21:14.798Z,13.63
2022-10-18T21:25:56.441Z,3.28
2022-10-18T21:30:36.563Z,12.65
2022-10-18T21:35:17.122Z,8.52
2022-10-18T21:39:57.314Z,8.15
2022-10-18T21:44:39.149Z,5.28
2022-10-18T21:49:19.879Z,7.25
2022-10-18T21:54:00.246Z,8.65
2022-10-18T21:58:42.173Z,13.27
2022-10-18T22:03:23.616Z,8.52
2022-10-18T22:08:04.722Z,4.28
2022-10-18T22:12:45.076Z,7.05
2022-10-18T22:17:25.582Z,19.23
2022-10-18T22:22:07.306Z,9.35
2022-10-18T22:26:47.925Z,11.98
2022-10-18T22:31:31.149Z,6.15
2022-10-18T22:36:11.375Z,4.55
2022-10-18T22:40:53.266Z,10.20
2022-10-18T22:45:33.645Z,16.33
2022-10-18T22:50:14.026Z,8.52
2022-10-18T22:54:54.742Z,10.27
2022-10-18T22:59:36.402Z,8.52
2022-10-18T23:04:16.785Z,10.13
2022-10-18T23:08:58.891Z,4.60
2022-10-18T23:13:39.727Z,11.70
2022-10-18T23:18:21.519Z,6.55
2022-10-18T23:23:02.059Z,13.02
2022-10-18T23:32:24.235Z,7.55
2022-10-18T23:37:05.629Z,9.45
2022-10-18T23:41:45.823Z,9.95
2022-10-18T23:46:26.464Z,7.40
2022-10-18T23:51:07.467Z,10.00
2022-10-18T23:55:54.542Z,9.82
